sensor_id;sensor_type;location;lat;lon;timestamp;temperature;humidity
10868;DHT22;62667;48.698;8.762;2022-12-20T00:01:16;3.50;99.90
10868;DHT22;62667;48.698;8.762;2022-12-20T00:03:48;3.50;99.90
10868;DHT22;62667;48.698;8.762;2022-12-20T00:06:16;3.50;99.90
10868;DHT22;62667;48.698;8.762;2022-12-20T00:08:44;3.50;99.90
10868;DHT22;62667;48.698;8.762;2022-12-20T00:11:12;3.60;99.90
10868;DHT22;62667;48.698;8.762;2022-12-20T00:13:39;3.50;99.90
10868;DHT22;62667;48.698;8.762;2022-12-20T00:16:08;3.50;99.90
10868;DHT22;62667;48.698;8.762;2022-12-20T00:18:38;3.50;99.90
10868;DHT22;62667;48.698;8.762;2022-12-20T00:21:09;3.40;99.90
10868;DHT22;62667;48.698;8.762;2022-12-20T00:23:39;3.40;99.90
10868;DHT22;62667;48.698;8.762;2022-12-20T00:26:09;3.40;99.90
10868;DHT22;62667;48.698;8.762;2022-12-20T00:28:39;3.40;99.90
10868;DHT22;62667;48.698;8.762;2022-12-20T00:31:12;3.50;99.90
10868;DHT22;62667;48.698;8.762;2022-12-20T00:33:43;3.60;99.90
10868;DHT22;62667;48.698;8.762;2022-12-20T00:36:13;3.60;99.90
10868;DHT22;62667;48.698;8.762;2022-12-20T00:38:43;3.50;99.90
10868;DHT22;62667;48.698;8.762;2022-12-20T00:41:15;3.40;99.90
10868;DHT22;62667;48.698;8.762;2022-12-20T00:43:45;3.50;99.90
10868;DHT22;62667;48.698;8.762;2022-12-20T00:46:14;3.50;99.90
10868;DHT22;62667;48.698;8.762;2022-12-20T00:48:42;3.40;99.90
10868;DHT22;62667;48.698;8.762;2022-12-20T00:51:12;3.40;99.90
10868;DHT22;62667;48.698;8.762;2022-12-20T00:53:42;3.40;99.90
10868;DHT22;62667;48.698;8.762;2022-12-20T00:56:09;3.30;99.90
10868;DHT22;62667;48.698;8.762;2022-12-20T00:58:39;3.20;99.90
10868;DHT22;62667;48.698;8.762;2022-12-20T01:01:17;3.20;99.90
10868;DHT22;62667;48.698;8.762;2022-12-20T01:03:45;3.30;99.90
10868;DHT22;62667;48.698;8.762;2022-12-20T01:06:14;3.40;99.90
10868;DHT22;62667;48.698;8.762;2022-12-20T01:08:41;3.40;99.90
10868;DHT22;62667;48.698;8.762;2022-12-20T01:11:12;3.50;99.90
10868;DHT22;62667;48.698;8.762;2022-12-20T01:13:42;3.60;99.90
10868;DHT22;62667;48.698;8.762;2022-12-20T01:16:12;3.60;99.90
10868;DHT22;62667;48.698;8.762;2022-12-20T01:18:40;3.70;99.90
10868;DHT22;62667;48.698;8.762;2022-12-20T01:21:10;3.70;99.90
10868;DHT22;62667;48.698;8.762;2022-12-20T01:23:40;3.50;99.90
10868;DHT22;62667;48.698;8.762;2022-12-20T01:26:11;3.50;99.90
10868;DHT22;62667;48.698;8.762;2022-12-20T01:28:41;3.40;99.90
10868;DHT22;62667;48.698;8.762;2022-12-20T01:31:12;3.30;99.90
10868;DHT22;62667;48.698;8.762;2022-12-20T01:33:40;3.30;99.90
10868;DHT22;62667;48.698;8.762;2022-12-20T01:36:12;3.30;99.90
10868;DHT22;62667;48.698;8.762;2022-12-20T01:38:43;3.30;99.90
10868;DHT22;62667;48.698;8.762;2022-12-20T01:41:14;3.30;99.90
10868;DHT22;62667;48.698;8.762;2022-12-20T01:43:46;3.40;99.90
10868;DHT22;62667;48.698;8.762;2022-12-20T01:46:17;3.40;99.90
10868;DHT22;62667;48.698;8.762;2022-12-20T01:48:48;3.50;99.90
10868;DHT22;62667;48.698;8.762;2022-12-20T01:51:20;3.50;99.90
10868;DHT22;62667;48.698;8.762;2022-12-20T01:53:56;3.50;99.90
10868;DHT22;62667;48.698;8.762;2022-12-20T01:56:27;3.50;99.90
10868;DHT22;62667;48.698;8.762;2022-12-20T01:58:55;3.50;99.90
10868;DHT22;62667;48.698;8.762;2022-12-20T02:01:23;3.50;99.90
10868;DHT22;62667;48.698;8.762;2022-12-20T02:03:51;3.50;99.90
10868;DHT22;62667;48.698;8.762;2022-12-20T02:06:22;3.50;99.90
10868;DHT22;62667;48.698;8.762;2022-12-20T02:08:53;3.50;99.90
10868;DHT22;62667;48.698;8.762;2022-12-20T02:11:32;3.50;99.90
10868;DHT22;62667;48.698;8.762;2022-12-20T02:14:16;3.50;99.90
10868;DHT22;62667;48.698;8.762;2022-12-20T02:16:56;3.60;99.90
10868;DHT22;62667;48.698;8.762;2022-12-20T02:20:00;3.50;99.90
10868;DHT22;62667;48.698;8.762;2022-12-20T02:22:57;3.50;99.90
10868;DHT22;62667;48.698;8.762;2022-12-20T02:25:48;3.30;99.90
10868;DHT22;62667;48.698;8.762;2022-12-20T02:28:39;3.30;99.90
10868;DHT22;62667;48.698;8.762;2022-12-20T02:31:25;3.30;99.90
10868;DHT22;62667;48.698;8.762;2022-12-20T02:33:56;3.20;99.90
10868;DHT22;62667;48.698;8.762;2022-12-20T02:36:24;3.20;99.90
10868;DHT22;62667;48.698;8.762;2022-12-20T02:38:51;3.20;99.90
10868;DHT22;62667;48.698;8.762;2022-12-20T02:41:21;3.30;99.90
10868;DHT22;62667;48.698;8.762;2022-12-20T02:43:55;3.30;99.90
10868;DHT22;62667;48.698;8.762;2022-12-20T02:46:45;3.30;99.90
10868;DHT22;62667;48.698;8.762;2022-12-20T02:49:17;3.30;99.90
10868;DHT22;62667;48.698;8.762;2022-12-20T02:51:50;3.30;99.90
10868;DHT22;62667;48.698;8.762;2022-12-20T02:54:19;3.30;99.90
10868;DHT22;62667;48.698;8.762;2022-12-20T02:56:52;3.10;99.90
10868;DHT22;62667;48.698;8.762;2022-12-20T02:59:27;3.00;99.90
10868;DHT22;62667;48.698;8.762;2022-12-20T03:01:57;3.00;99.90
10868;DHT22;62667;48.698;8.762;2022-12-20T03:04:27;3.00;99.90
10868;DHT22;62667;48.698;8.762;2022-12-20T03:07:00;3.10;99.90
10868;DHT22;62667;48.698;8.762;2022-12-20T03:09:30;3.20;99.90
10868;DHT22;62667;48.698;8.762;2022-12-20T03:11:59;3.20;99.90
10868;DHT22;62667;48.698;8.762;2022-12-20T03:14:27;3.20;99.90
10868;DHT22;62667;48.698;8.762;2022-12-20T03:16:54;3.00;99.90
10868;DHT22;62667;48.698;8.762;2022-12-20T03:19:22;2.80;99.90
10868;DHT22;62667;48.698;8.762;2022-12-20T03:21:50;2.80;99.90
10868;DHT22;62667;48.698;8.762;2022-12-20T03:24:17;3.00;99.90
10868;DHT22;62667;48.698;8.762;2022-12-20T03:26:44;3.00;99.90
10868;DHT22;62667;48.698;8.762;2022-12-20T03:29:11;3.00;99.90
10868;DHT22;62667;48.698;8.762;2022-12-20T03:31:38;3.00;99.90
10868;DHT22;62667;48.698;8.762;2022-12-20T03:34:05;3.00;99.90
10868;DHT22;62667;48.698;8.762;2022-12-20T03:36:34;3.10;99.90
10868;DHT22;62667;48.698;8.762;2022-12-20T03:39:02;3.10;99.90
10868;DHT22;62667;48.698;8.762;2022-12-20T03:41:30;3.10;99.90
10868;DHT22;62667;48.698;8.762;2022-12-20T03:43:57;3.20;99.90
10868;DHT22;62667;48.698;8.762;2022-12-20T03:46:24;3.30;99.90
10868;DHT22;62667;48.698;8.762;2022-12-20T03:48:52;3.40;99.90
10868;DHT22;62667;48.698;8.762;2022-12-20T03:51:19;3.50;99.90
10868;DHT22;62667;48.698;8.762;2022-12-20T03:53:47;3.40;99.90
10868;DHT22;62667;48.698;8.762;2022-12-20T03:56:14;3.50;99.90
10868;DHT22;62667;48.698;8.762;2022-12-20T03:58:41;3.50;99.90
10868;DHT22;62667;48.698;8.762;2022-12-20T04:01:22;3.50;99.90
10868;DHT22;62667;48.698;8.762;2022-12-20T04:03:50;3.50;99.90
10868;DHT22;62667;48.698;8.762;2022-12-20T04:06:18;3.50;99.90
10868;DHT22;62667;48.698;8.762;2022-12-20T04:08:48;3.60;99.90
10868;DHT22;62667;48.698;8.762;2022-12-20T04:11:15;3.50;99.90
10868;DHT22;62667;48.698;8.762;2022-12-20T04:13:42;3.50;99.90
10868;DHT22;62667;48.698;8.762;2022-12-20T04:16:10;3.50;99.90
10868;DHT22;62667;48.698;8.762;2022-12-20T04:18:37;3.50;99.90
10868;DHT22;62667;48.698;8.762;2022-12-20T04:21:04;3.50;99.90
10868;DHT22;62667;48.698;8.762;2022-12-20T04:23:33;3.50;99.90
10868;DHT22;62667;48.698;8.762;2022-12-20T04:26:02;3.50;99.90
10868;DHT22;62667;48.698;8.762;2022-12-20T04:28:32;3.60;99.90
10868;DHT22;62667;48.698;8.762;2022-12-20T04:31:00;3.70;99.90
10868;DHT22;62667;48.698;8.762;2022-12-20T04:33:27;3.80;99.90
10868;DHT22;62667;48.698;8.762;2022-12-20T04:35:55;3.80;99.90
10868;DHT22;62667;48.698;8.762;2022-12-20T04:38:22;3.80;99.90
10868;DHT22;62667;48.698;8.762;2022-12-20T04:40:50;3.90;99.90
10868;DHT22;62667;48.698;8.762;2022-12-20T04:43:21;4.00;99.90
10868;DHT22;62667;48.698;8.762;2022-12-20T04:45:51;4.10;99.90
10868;DHT22;62667;48.698;8.762;2022-12-20T04:48:21;4.30;99.90
10868;DHT22;62667;48.698;8.762;2022-12-20T04:50:52;4.20;99.90
10868;DHT22;62667;48.698;8.762;2022-12-20T04:53:20;4.10;99.90
10868;DHT22;62667;48.698;8.762;2022-12-20T04:56:06;4.10;99.90
10868;DHT22;62667;48.698;8.762;2022-12-20T04:58:35;4.10;99.90
10868;DHT22;62667;48.698;8.762;2022-12-20T05:01:02;4.10;99.90
10868;DHT22;62667;48.698;8.762;2022-12-20T05:03:29;4.20;99.90
10868;DHT22;62667;48.698;8.762;2022-12-20T05:05:56;4.40;99.90
10868;DHT22;62667;48.698;8.762;2022-12-20T05:08:23;4.50;99.90
10868;DHT22;62667;48.698;8.762;2022-12-20T05:10:51;4.50;99.90
10868;DHT22;62667;48.698;8.762;2022-12-20T05:13:18;4.50;99.90
10868;DHT22;62667;48.698;8.762;2022-12-20T05:15:50;4.60;99.90
10868;DHT22;62667;48.698;8.762;2022-12-20T05:18:18;4.60;99.90
10868;DHT22;62667;48.698;8.762;2022-12-20T05:20:46;4.60;99.90
10868;DHT22;62667;48.698;8.762;2022-12-20T05:23:34;4.60;99.90
10868;DHT22;62667;48.698;8.762;2022-12-20T05:26:18;4.60;99.90
10868;DHT22;62667;48.698;8.762;2022-12-20T05:28:46;4.70;99.90
10868;DHT22;62667;48.698;8.762;2022-12-20T05:31:14;4.70;99.90
10868;DHT22;62667;48.698;8.762;2022-12-20T05:33:41;4.70;99.90
10868;DHT22;62667;48.698;8.762;2022-12-20T05:36:08;4.70;99.90
10868;DHT22;62667;48.698;8.762;2022-12-20T05:38:35;4.60;99.90
10868;DHT22;62667;48.698;8.762;2022-12-20T05:41:02;4.50;99.90
10868;DHT22;62667;48.698;8.762;2022-12-20T05:43:31;4.60;99.90
10868;DHT22;62667;48.698;8.762;2022-12-20T05:45:58;4.50;99.90
10868;DHT22;62667;48.698;8.762;2022-12-20T05:48:27;4.50;99.90
10868;DHT22;62667;48.698;8.762;2022-12-20T05:50:54;4.40;99.90
10868;DHT22;62667;48.698;8.762;2022-12-20T05:53:21;4.50;99.90
10868;DHT22;62667;48.698;8.762;2022-12-20T05:55:50;4.50;99.90
10868;DHT22;62667;48.698;8.762;2022-12-20T05:58:19;4.50;99.90
10868;DHT22;62667;48.698;8.762;2022-12-20T06:00:46;4.60;99.90
10868;DHT22;62667;48.698;8.762;2022-12-20T06:03:13;4.60;99.90
10868;DHT22;62667;48.698;8.762;2022-12-20T06:05:43;4.60;99.90
10868;DHT22;62667;48.698;8.762;2022-12-20T06:08:11;4.70;99.90
10868;DHT22;62667;48.698;8.762;2022-12-20T06:10:39;4.60;99.90
10868;DHT22;62667;48.698;8.762;2022-12-20T06:13:08;4.60;99.90
10868;DHT22;62667;48.698;8.762;2022-12-20T06:15:35;4.60;99.90
10868;DHT22;62667;48.698;8.762;2022-12-20T06:18:04;4.60;99.90
10868;DHT22;62667;48.698;8.762;2022-12-20T06:20:32;4.60;99.90
10868;DHT22;62667;48.698;8.762;2022-12-20T06:23:01;4.70;99.90
10868;DHT22;62667;48.698;8.762;2022-12-20T06:25:29;4.70;99.90
10868;DHT22;62667;48.698;8.762;2022-12-20T06:27:56;4.70;99.90
10868;DHT22;62667;48.698;8.762;2022-12-20T06:30:24;4.70;99.90
10868;DHT22;62667;48.698;8.762;2022-12-20T06:32:51;4.80;99.90
10868;DHT22;62667;48.698;8.762;2022-12-20T06:35:18;4.80;99.90
10868;DHT22;62667;48.698;8.762;2022-12-20T06:37:45;4.80;99.90
10868;DHT22;62667;48.698;8.762;2022-12-20T06:40:14;4.80;99.90
10868;DHT22;62667;48.698;8.762;2022-12-20T06:42:41;4.80;99.90
10868;DHT22;62667;48.698;8.762;2022-12-20T06:45:09;4.90;99.90
10868;DHT22;62667;48.698;8.762;2022-12-20T06:47:36;5.00;99.90
10868;DHT22;62667;48.698;8.762;2022-12-20T06:50:05;5.00;99.90
10868;DHT22;62667;48.698;8.762;2022-12-20T06:52:32;5.00;99.90
10868;DHT22;62667;48.698;8.762;2022-12-20T06:54:59;5.00;99.90
10868;DHT22;62667;48.698;8.762;2022-12-20T06:57:28;5.10;99.90
10868;DHT22;62667;48.698;8.762;2022-12-20T06:59:55;5.00;99.90
10868;DHT22;62667;48.698;8.762;2022-12-20T07:02:22;5.10;99.90
10868;DHT22;62667;48.698;8.762;2022-12-20T07:04:49;5.10;99.90
10868;DHT22;62667;48.698;8.762;2022-12-20T07:07:16;5.10;99.90
10868;DHT22;62667;48.698;8.762;2022-12-20T07:09:43;5.20;99.90
10868;DHT22;62667;48.698;8.762;2022-12-20T07:12:11;5.20;99.90
10868;DHT22;62667;48.698;8.762;2022-12-20T07:14:39;5.20;99.90
10868;DHT22;62667;48.698;8.762;2022-12-20T07:17:06;5.30;99.90
10868;DHT22;62667;48.698;8.762;2022-12-20T07:19:34;5.30;99.90
10868;DHT22;62667;48.698;8.762;2022-12-20T07:22:02;5.30;99.90
10868;DHT22;62667;48.698;8.762;2022-12-20T07:24:30;5.30;99.90
10868;DHT22;62667;48.698;8.762;2022-12-20T07:26:57;5.30;99.90
10868;DHT22;62667;48.698;8.762;2022-12-20T07:29:24;5.40;99.90
10868;DHT22;62667;48.698;8.762;2022-12-20T07:31:52;5.40;99.80
10868;DHT22;62667;48.698;8.762;2022-12-20T07:34:20;5.40;99.50
10868;DHT22;62667;48.698;8.762;2022-12-20T07:36:47;5.40;99.80
10868;DHT22;62667;48.698;8.762;2022-12-20T07:39:15;5.40;99.20
10868;DHT22;62667;48.698;8.762;2022-12-20T07:41:42;5.50;98.80
10868;DHT22;62667;48.698;8.762;2022-12-20T07:44:09;5.50;99.20
10868;DHT22;62667;48.698;8.762;2022-12-20T07:46:36;5.50;98.90
10868;DHT22;62667;48.698;8.762;2022-12-20T07:49:04;5.60;98.80
10868;DHT22;62667;48.698;8.762;2022-12-20T07:51:35;5.70;98.60
10868;DHT22;62667;48.698;8.762;2022-12-20T07:54:08;5.70;98.00
10868;DHT22;62667;48.698;8.762;2022-12-20T07:56:41;5.80;98.20
10868;DHT22;62667;48.698;8.762;2022-12-20T07:59:13;5.80;97.30
10868;DHT22;62667;48.698;8.762;2022-12-20T08:01:44;5.80;97.90
10868;DHT22;62667;48.698;8.762;2022-12-20T08:04:14;5.90;96.80
10868;DHT22;62667;48.698;8.762;2022-12-20T08:06:44;5.90;96.70
10868;DHT22;62667;48.698;8.762;2022-12-20T08:09:13;5.90;96.70
10868;DHT22;62667;48.698;8.762;2022-12-20T08:11:44;6.00;96.20
10868;DHT22;62667;48.698;8.762;2022-12-20T08:14:13;6.00;96.10
10868;DHT22;62667;48.698;8.762;2022-12-20T08:16:43;6.00;96.30
10868;DHT22;62667;48.698;8.762;2022-12-20T08:19:11;6.00;96.40
10868;DHT22;62667;48.698;8.762;2022-12-20T08:21:39;5.90;96.70
10868;DHT22;62667;48.698;8.762;2022-12-20T08:24:06;5.90;97.00
10868;DHT22;62667;48.698;8.762;2022-12-20T08:26:37;5.90;97.00
10868;DHT22;62667;48.698;8.762;2022-12-20T08:29:04;5.90;96.90
10868;DHT22;62667;48.698;8.762;2022-12-20T08:31:31;6.00;96.80
10868;DHT22;62667;48.698;8.762;2022-12-20T08:33:58;6.10;96.50
10868;DHT22;62667;48.698;8.762;2022-12-20T08:38:54;6.10;95.20
10868;DHT22;62667;48.698;8.762;2022-12-20T08:41:21;6.00;95.70
10868;DHT22;62667;48.698;8.762;2022-12-20T08:43:49;6.00;95.80
10868;DHT22;62667;48.698;8.762;2022-12-20T08:46:16;6.00;96.00
10868;DHT22;62667;48.698;8.762;2022-12-20T08:48:43;6.10;95.30
10868;DHT22;62667;48.698;8.762;2022-12-20T08:51:10;6.00;95.10
10868;DHT22;62667;48.698;8.762;2022-12-20T08:53:39;6.00;95.20
10868;DHT22;62667;48.698;8.762;2022-12-20T08:56:08;6.10;95.40
10868;DHT22;62667;48.698;8.762;2022-12-20T08:58:39;6.10;95.00
10868;DHT22;62667;48.698;8.762;2022-12-20T09:01:08;6.20;94.80
10868;DHT22;62667;48.698;8.762;2022-12-20T09:03:37;6.10;94.90
10868;DHT22;62667;48.698;8.762;2022-12-20T09:06:06;6.10;95.30
10868;DHT22;62667;48.698;8.762;2022-12-20T09:08:37;6.10;95.40
10868;DHT22;62667;48.698;8.762;2022-12-20T09:11:07;6.10;95.80
10868;DHT22;62667;48.698;8.762;2022-12-20T09:13:36;6.10;94.70
10868;DHT22;62667;48.698;8.762;2022-12-20T09:16:05;6.10;94.70
10868;DHT22;62667;48.698;8.762;2022-12-20T09:18:34;6.10;94.50
10868;DHT22;62667;48.698;8.762;2022-12-20T09:21:02;6.10;93.90
10868;DHT22;62667;48.698;8.762;2022-12-20T09:23:31;6.20;93.90
10868;DHT22;62667;48.698;8.762;2022-12-20T09:26:02;6.40;93.20
10868;DHT22;62667;48.698;8.762;2022-12-20T09:28:30;6.50;92.60
10868;DHT22;62667;48.698;8.762;2022-12-20T09:30:57;6.50;92.70
10868;DHT22;62667;48.698;8.762;2022-12-20T09:33:25;6.60;91.70
10868;DHT22;62667;48.698;8.762;2022-12-20T09:35:53;6.60;91.50
10868;DHT22;62667;48.698;8.762;2022-12-20T09:38:20;6.60;91.40
10868;DHT22;62667;48.698;8.762;2022-12-20T09:40:49;6.80;90.70
10868;DHT22;62667;48.698;8.762;2022-12-20T09:43:20;6.80;90.60
10868;DHT22;62667;48.698;8.762;2022-12-20T09:45:51;6.80;91.10
10868;DHT22;62667;48.698;8.762;2022-12-20T09:48:23;6.80;90.90
10868;DHT22;62667;48.698;8.762;2022-12-20T09:51:02;6.80;90.80
10868;DHT22;62667;48.698;8.762;2022-12-20T09:53:49;6.80;91.80
10868;DHT22;62667;48.698;8.762;2022-12-20T09:56:31;6.70;92.00
10868;DHT22;62667;48.698;8.762;2022-12-20T09:59:05;6.60;92.90
10868;DHT22;62667;48.698;8.762;2022-12-20T10:01:37;6.60;93.20
10868;DHT22;62667;48.698;8.762;2022-12-20T10:04:06;6.60;92.00
10868;DHT22;62667;48.698;8.762;2022-12-20T10:06:58;6.60;92.20
10868;DHT22;62667;48.698;8.762;2022-12-20T10:10:02;6.60;92.20
10868;DHT22;62667;48.698;8.762;2022-12-20T10:12:47;6.60;92.80
10868;DHT22;62667;48.698;8.762;2022-12-20T10:15:28;6.70;92.30
10868;DHT22;62667;48.698;8.762;2022-12-20T10:18:12;6.70;92.20
10868;DHT22;62667;48.698;8.762;2022-12-20T10:20:56;6.70;92.30
10868;DHT22;62667;48.698;8.762;2022-12-20T10:23:31;6.60;92.20
10868;DHT22;62667;48.698;8.762;2022-12-20T10:26:08;6.60;92.70
10868;DHT22;62667;48.698;8.762;2022-12-20T10:28:36;6.50;92.90
10868;DHT22;62667;48.698;8.762;2022-12-20T10:31:10;6.50;93.50
10868;DHT22;62667;48.698;8.762;2022-12-20T10:33:41;6.60;93.30
10868;DHT22;62667;48.698;8.762;2022-12-20T10:36:21;6.60;92.20
10868;DHT22;62667;48.698;8.762;2022-12-20T10:38:52;6.70;92.60
10868;DHT22;62667;48.698;8.762;2022-12-20T10:41:22;6.60;92.60
10868;DHT22;62667;48.698;8.762;2022-12-20T10:43:55;6.60;93.40
10868;DHT22;62667;48.698;8.762;2022-12-20T10:46:36;6.60;93.40
10868;DHT22;62667;48.698;8.762;2022-12-20T10:49:26;6.70;93.00
10868;DHT22;62667;48.698;8.762;2022-12-20T10:51:58;6.80;92.00
10868;DHT22;62667;48.698;8.762;2022-12-20T10:54:32;6.90;91.40
10868;DHT22;62667;48.698;8.762;2022-12-20T10:57:03;7.00;91.00
10868;DHT22;62667;48.698;8.762;2022-12-20T10:59:44;7.00;90.80
10868;DHT22;62667;48.698;8.762;2022-12-20T11:02:31;6.90;91.10
10868;DHT22;62667;48.698;8.762;2022-12-20T11:05:02;6.90;91.00
10868;DHT22;62667;48.698;8.762;2022-12-20T11:07:53;7.00;91.30
10868;DHT22;62667;48.698;8.762;2022-12-20T11:10:23;7.10;91.00
10868;DHT22;62667;48.698;8.762;2022-12-20T11:12:52;7.20;99.90
10868;DHT22;62667;48.698;8.762;2022-12-20T11:15:22;7.10;99.90
10868;DHT22;62667;48.698;8.762;2022-12-20T11:17:57;7.20;99.90
10868;DHT22;62667;48.698;8.762;2022-12-20T11:20:35;7.20;99.90
10868;DHT22;62667;48.698;8.762;2022-12-20T11:23:16;7.10;90.30
10868;DHT22;62667;48.698;8.762;2022-12-20T11:26:11;7.10;90.80
10868;DHT22;62667;48.698;8.762;2022-12-20T11:29:12;7.10;90.70
10868;DHT22;62667;48.698;8.762;2022-12-20T11:31:55;7.20;90.20
10868;DHT22;62667;48.698;8.762;2022-12-20T11:34:38;7.30;90.40
10868;DHT22;62667;48.698;8.762;2022-12-20T11:37:18;7.40;90.30
10868;DHT22;62667;48.698;8.762;2022-12-20T11:40:02;7.50;90.10
10868;DHT22;62667;48.698;8.762;2022-12-20T11:42:51;7.50;90.00
10868;DHT22;62667;48.698;8.762;2022-12-20T11:45:30;7.60;89.40
10868;DHT22;62667;48.698;8.762;2022-12-20T11:51:20;7.90;99.90
10868;DHT22;62667;48.698;8.762;2022-12-20T12:14:34;8.00;99.90
10868;DHT22;62667;48.698;8.762;2022-12-20T12:22:21;8.20;85.60
10868;DHT22;62667;48.698;8.762;2022-12-20T12:24:57;8.20;87.00
10868;DHT22;62667;48.698;8.762;2022-12-20T12:27:28;8.30;86.10
10868;DHT22;62667;48.698;8.762;2022-12-20T12:29:57;8.40;86.50
10868;DHT22;62667;48.698;8.762;2022-12-20T12:32:33;8.40;86.20
10868;DHT22;62667;48.698;8.762;2022-12-20T12:35:21;8.40;86.40
10868;DHT22;62667;48.698;8.762;2022-12-20T12:38:30;8.40;86.40
10868;DHT22;62667;48.698;8.762;2022-12-20T12:44:42;8.30;86.40
10868;DHT22;62667;48.698;8.762;2022-12-20T12:47:19;8.30;85.60
10868;DHT22;62667;48.698;8.762;2022-12-20T12:49:52;8.40;85.70
10868;DHT22;62667;48.698;8.762;2022-12-20T12:52:41;8.40;84.60
10868;DHT22;62667;48.698;8.762;2022-12-20T12:55:40;8.20;85.60
10868;DHT22;62667;48.698;8.762;2022-12-20T13:01:04;8.10;87.50
10868;DHT22;62667;48.698;8.762;2022-12-20T13:03:40;8.10;86.30
10868;DHT22;62667;48.698;8.762;2022-12-20T13:06:42;8.20;86.40
10868;DHT22;62667;48.698;8.762;2022-12-20T13:09:41;8.10;86.70
10868;DHT22;62667;48.698;8.762;2022-12-20T13:16:10;8.10;87.30
10868;DHT22;62667;48.698;8.762;2022-12-20T13:18:55;8.10;87.20
10868;DHT22;62667;48.698;8.762;2022-12-20T13:21:35;8.10;87.50
10868;DHT22;62667;48.698;8.762;2022-12-20T13:24:38;8.00;88.10
10868;DHT22;62667;48.698;8.762;2022-12-20T13:27:33;7.90;88.50
10868;DHT22;62667;48.698;8.762;2022-12-20T13:30:26;8.00;88.70
10868;DHT22;62667;48.698;8.762;2022-12-20T13:32:57;7.90;88.70
10868;DHT22;62667;48.698;8.762;2022-12-20T13:39:00;8.00;88.40
10868;DHT22;62667;48.698;8.762;2022-12-20T13:41:39;8.10;88.50
10868;DHT22;62667;48.698;8.762;2022-12-20T13:44:34;8.10;88.20
10868;DHT22;62667;48.698;8.762;2022-12-20T13:50:22;8.60;90.00
10868;DHT22;62667;48.698;8.762;2022-12-20T13:52:53;9.10;85.30
10868;DHT22;62667;48.698;8.762;2022-12-20T13:55:30;9.40;84.40
10868;DHT22;62667;48.698;8.762;2022-12-20T13:58:09;9.70;83.10
10868;DHT22;62667;48.698;8.762;2022-12-20T14:00:39;9.70;81.30
10868;DHT22;62667;48.698;8.762;2022-12-20T14:03:16;9.60;80.30
10868;DHT22;62667;48.698;8.762;2022-12-20T14:05:48;9.30;80.20
10868;DHT22;62667;48.698;8.762;2022-12-20T14:08:20;9.20;81.10
10868;DHT22;62667;48.698;8.762;2022-12-20T14:10:51;9.00;81.10
10868;DHT22;62667;48.698;8.762;2022-12-20T14:13:21;8.80;82.10
10868;DHT22;62667;48.698;8.762;2022-12-20T14:15:53;8.60;83.40
10868;DHT22;62667;48.698;8.762;2022-12-20T14:18:23;8.50;84.00
10868;DHT22;62667;48.698;8.762;2022-12-20T14:20:54;8.40;84.70
10868;DHT22;62667;48.698;8.762;2022-12-20T14:23:26;8.30;85.70
10868;DHT22;62667;48.698;8.762;2022-12-20T14:26:00;8.20;86.30
10868;DHT22;62667;48.698;8.762;2022-12-20T14:28:30;8.20;86.60
10868;DHT22;62667;48.698;8.762;2022-12-20T14:31:03;8.10;87.30
10868;DHT22;62667;48.698;8.762;2022-12-20T14:33:35;8.00;87.80
10868;DHT22;62667;48.698;8.762;2022-12-20T14:36:18;7.90;88.10
10868;DHT22;62667;48.698;8.762;2022-12-20T14:38:47;7.80;88.50
10868;DHT22;62667;48.698;8.762;2022-12-20T14:41:33;7.80;89.10
10868;DHT22;62667;48.698;8.762;2022-12-20T14:44:15;7.80;89.40
10868;DHT22;62667;48.698;8.762;2022-12-20T14:46:48;7.80;89.20
10868;DHT22;62667;48.698;8.762;2022-12-20T14:49:24;7.80;89.10
10868;DHT22;62667;48.698;8.762;2022-12-20T14:52:06;7.70;89.00
10868;DHT22;62667;48.698;8.762;2022-12-20T14:54:42;7.60;89.60
10868;DHT22;62667;48.698;8.762;2022-12-20T14:57:21;7.60;90.00
10868;DHT22;62667;48.698;8.762;2022-12-20T14:59:59;7.60;90.40
10868;DHT22;62667;48.698;8.762;2022-12-20T15:02:38;7.70;89.90
10868;DHT22;62667;48.698;8.762;2022-12-20T15:05:45;7.70;89.60
10868;DHT22;62667;48.698;8.762;2022-12-20T15:08:20;7.60;89.40
10868;DHT22;62667;48.698;8.762;2022-12-20T15:11:00;7.50;89.70
10868;DHT22;62667;48.698;8.762;2022-12-20T15:13:33;7.50;90.40
10868;DHT22;62667;48.698;8.762;2022-12-20T15:16:02;7.40;90.70
10868;DHT22;62667;48.698;8.762;2022-12-20T15:18:31;7.40;90.90
10868;DHT22;62667;48.698;8.762;2022-12-20T15:21:02;7.50;90.90
10868;DHT22;62667;48.698;8.762;2022-12-20T15:23:33;7.50;90.60
10868;DHT22;62667;48.698;8.762;2022-12-20T15:26:00;7.60;90.30
10868;DHT22;62667;48.698;8.762;2022-12-20T15:28:28;7.60;89.90
10868;DHT22;62667;48.698;8.762;2022-12-20T15:31:05;7.40;90.50
10868;DHT22;62667;48.698;8.762;2022-12-20T15:33:33;7.40;91.10
10868;DHT22;62667;48.698;8.762;2022-12-20T15:36:01;7.30;91.40
10868;DHT22;62667;48.698;8.762;2022-12-20T15:38:28;7.30;91.90
10868;DHT22;62667;48.698;8.762;2022-12-20T15:41:03;7.30;92.30
10868;DHT22;62667;48.698;8.762;2022-12-20T15:43:34;7.30;92.00
10868;DHT22;62667;48.698;8.762;2022-12-20T15:46:04;7.30;91.80
10868;DHT22;62667;48.698;8.762;2022-12-20T15:48:31;7.20;92.20
10868;DHT22;62667;48.698;8.762;2022-12-20T15:50:58;7.20;92.60
10868;DHT22;62667;48.698;8.762;2022-12-20T15:53:29;7.20;92.80
10868;DHT22;62667;48.698;8.762;2022-12-20T15:55:59;7.20;93.10
10868;DHT22;62667;48.698;8.762;2022-12-20T15:58:26;7.10;93.40
10868;DHT22;62667;48.698;8.762;2022-12-20T16:00:59;7.10;93.70
10868;DHT22;62667;48.698;8.762;2022-12-20T16:03:29;7.10;93.60
10868;DHT22;62667;48.698;8.762;2022-12-20T16:05:57;7.10;93.50
10868;DHT22;62667;48.698;8.762;2022-12-20T16:08:24;7.20;93.60
10868;DHT22;62667;48.698;8.762;2022-12-20T16:10:51;7.20;93.60
10868;DHT22;62667;48.698;8.762;2022-12-20T16:13:22;7.20;93.70
10868;DHT22;62667;48.698;8.762;2022-12-20T16:15:51;7.20;93.10
10868;DHT22;62667;48.698;8.762;2022-12-20T16:18:21;7.20;93.40
10868;DHT22;62667;48.698;8.762;2022-12-20T16:20:49;7.20;93.50
10868;DHT22;62667;48.698;8.762;2022-12-20T16:23:18;7.20;93.30
10868;DHT22;62667;48.698;8.762;2022-12-20T16:25:47;7.20;93.20
10868;DHT22;62667;48.698;8.762;2022-12-20T16:28:16;7.30;93.30
10868;DHT22;62667;48.698;8.762;2022-12-20T16:30:44;7.30;93.00
10868;DHT22;62667;48.698;8.762;2022-12-20T16:33:19;7.30;93.00
10868;DHT22;62667;48.698;8.762;2022-12-20T16:35:47;7.30;92.70
10868;DHT22;62667;48.698;8.762;2022-12-20T16:38:14;7.20;92.40
10868;DHT22;62667;48.698;8.762;2022-12-20T16:40:41;7.20;92.40
10868;DHT22;62667;48.698;8.762;2022-12-20T16:43:12;7.10;93.30
10868;DHT22;62667;48.698;8.762;2022-12-20T16:45:44;7.10;93.50
10868;DHT22;62667;48.698;8.762;2022-12-20T16:48:11;7.10;93.50
10868;DHT22;62667;48.698;8.762;2022-12-20T16:50:38;7.10;93.50
10868;DHT22;62667;48.698;8.762;2022-12-20T16:53:11;7.10;93.20
10868;DHT22;62667;48.698;8.762;2022-12-20T16:55:40;7.10;93.60
10868;DHT22;62667;48.698;8.762;2022-12-20T16:58:07;7.10;93.60
10868;DHT22;62667;48.698;8.762;2022-12-20T17:00:34;7.10;93.70
10868;DHT22;62667;48.698;8.762;2022-12-20T17:03:03;7.10;93.70
10868;DHT22;62667;48.698;8.762;2022-12-20T17:05:34;7.10;94.00